createdAt,value
2018-01-03T00:02:27.296Z,7.54
2018-01-03T00:04:55.816Z,7.64
2018-01-03T00:07:24.432Z,7.84
2018-01-03T00:09:53.587Z,7.44
2018-01-03T00:12:21.976Z,7.29
2018-01-03T00:14:50.410Z,7.33
2018-01-03T00:17:18.829Z,7.43
2018-01-03T00:19:47.181Z,7.42
2018-01-03T00:22:15.579Z,7.40
2018-01-03T00:24:44.620Z,7.01
2018-01-03T00:27:12.935Z,7.09
2018-01-03T00:29:41.473Z,6.92
2018-01-03T00:32:09.775Z,6.92
2018-01-03T00:34:38.878Z,6.90
2018-01-03T00:37:07.954Z,6.92
2018-01-03T00:39:36.416Z,6.80
2018-01-03T00:42:04.771Z,6.94
2018-01-03T00:44:33.180Z,7.00
2018-01-03T00:47:01.497Z,6.96
2018-01-03T00:49:29.816Z,6.89
2018-01-03T00:51:58.247Z,6.92
2018-01-03T00:54:27.360Z,6.87
2018-01-03T00:56:55.707Z,6.92
2018-01-03T00:59:24.086Z,6.85
2018-01-03T01:01:52.420Z,7.00
2018-01-03T01:04:20.737Z,6.97
2018-01-03T01:06:49.101Z,6.96
2018-01-03T01:09:17.439Z,6.87
2018-01-03T01:11:45.846Z,6.91
2018-01-03T01:14:14.652Z,6.91
2018-01-03T01:16:42.971Z,6.80
2018-01-03T01:19:12.062Z,6.71
2018-01-03T01:21:40.463Z,6.54
2018-01-03T01:24:09.098Z,6.50
2018-01-03T01:26:37.463Z,6.53
2018-01-03T01:29:05.820Z,6.63
2018-01-03T01:31:34.301Z,6.75
2018-01-03T01:34:02.635Z,6.58
2018-01-03T01:36:31.879Z,6.74
2018-01-03T01:39:00.313Z,6.45
2018-01-03T01:41:28.636Z,6.50
2018-01-03T01:43:56.962Z,6.62
2018-01-03T01:46:25.309Z,6.73
2018-01-03T01:49:07.465Z,6.68
2018-01-03T01:51:36.550Z,6.70
2018-01-03T01:54:05.629Z,6.59
2018-01-03T01:56:34.073Z,6.57
2018-01-03T01:59:02.387Z,6.58
2018-01-03T02:01:30.701Z,6.69
2018-01-03T02:03:59.057Z,6.75
2018-01-03T02:06:27.402Z,6.65
2018-01-03T02:08:55.714Z,6.76
2018-01-03T02:11:24.066Z,6.85
2018-01-03T02:13:52.402Z,6.65
2018-01-03T02:16:20.733Z,6.62
2018-01-03T02:18:49.297Z,6.64
2018-01-03T02:21:17.641Z,6.85
2018-01-03T02:23:46.000Z,6.92
2018-01-03T02:26:15.156Z,6.84
2018-01-03T02:28:43.497Z,6.78
2018-01-03T02:31:11.829Z,6.64
2018-01-03T02:33:40.182Z,6.82
2018-01-03T02:36:08.526Z,7.04
2018-01-03T02:38:36.861Z,6.86
2018-01-03T02:41:05.448Z,6.89
2018-01-03T02:43:33.811Z,7.15
2018-01-03T02:46:02.123Z,7.18
2018-01-03T02:48:31.227Z,7.21
2018-01-03T02:51:00.304Z,7.28
2018-01-03T02:53:28.625Z,7.24
2018-01-03T02:55:56.976Z,7.03
2018-01-03T02:58:26.068Z,6.95
2018-01-03T03:00:55.165Z,6.89
2018-01-03T03:03:23.620Z,7.07
2018-01-03T03:05:51.923Z,7.21
2018-01-03T03:08:21.034Z,7.30
2018-01-03T03:10:49.429Z,7.00
2018-01-03T03:13:17.746Z,7.07
2018-01-03T03:15:46.088Z,6.93
2018-01-03T03:18:14.449Z,7.13
2018-01-03T03:20:43.570Z,7.04
2018-01-03T03:23:11.888Z,7.00
2018-01-03T03:25:40.566Z,7.15
2018-01-03T03:28:08.897Z,7.31
2018-01-03T03:30:37.228Z,7.18
2018-01-03T03:33:05.600Z,7.24
2018-01-03T03:35:33.949Z,7.07
2018-01-03T03:38:02.308Z,7.09
2018-01-03T03:40:31.387Z,7.28
2018-01-03T03:42:59.718Z,7.18
2018-01-03T03:45:28.042Z,7.19
2018-01-03T03:47:56.991Z,7.05
2018-01-03T03:50:25.351Z,7.26
2018-01-03T03:52:53.662Z,7.10
2018-01-03T03:55:22.005Z,7.31
2018-01-03T03:57:50.474Z,7.23
2018-01-03T04:00:18.794Z,7.07
2018-01-03T04:02:47.136Z,6.98
2018-01-03T04:05:15.487Z,6.98
2018-01-03T04:07:43.839Z,6.89
2018-01-03T04:10:12.670Z,7.04
2018-01-03T04:12:40.983Z,7.21
2018-01-03T04:15:09.410Z,7.10
2018-01-03T04:17:37.790Z,7.04
2018-01-03T04:20:06.172Z,7.11
2018-01-03T04:22:34.527Z,7.28
2018-01-03T04:25:02.901Z,7.28
2018-01-03T04:27:31.240Z,7.09
2018-01-03T04:29:59.574Z,7.22
2018-01-03T04:32:28.130Z,7.06
2018-01-03T04:34:56.446Z,7.17
2018-01-03T04:37:24.747Z,6.99
2018-01-03T04:39:53.886Z,7.01
2018-01-03T04:42:22.286Z,7.10
2018-01-03T04:44:50.602Z,7.18
2018-01-03T04:47:18.963Z,7.10
2018-01-03T04:49:48.077Z,6.96
2018-01-03T04:52:17.175Z,6.87
2018-01-03T04:54:46.434Z,7.13
2018-01-03T04:57:14.809Z,7.13
2018-01-03T04:59:43.267Z,6.97
2018-01-03T05:02:11.606Z,6.90
2018-01-03T05:04:39.924Z,7.04
2018-01-03T05:07:08.248Z,6.99
2018-01-03T05:09:36.596Z,7.06
2018-01-03T05:12:04.941Z,7.09
2018-01-03T05:14:33.293Z,7.00
2018-01-03T05:17:02.838Z,6.81
2018-01-03T05:19:31.165Z,6.79
2018-01-03T05:21:59.516Z,6.93
2018-01-03T05:24:27.888Z,6.86
2018-01-03T05:26:56.281Z,7.08
2018-01-03T05:29:24.625Z,6.75
2018-01-03T05:31:52.989Z,6.80
2018-01-03T05:34:22.093Z,6.87
2018-01-03T05:36:50.399Z,6.99
2018-01-03T05:39:18.835Z,6.96
2018-01-03T05:41:47.161Z,6.92
2018-01-03T05:44:15.496Z,7.07
2018-01-03T05:46:44.607Z,7.20
2018-01-03T05:49:12.929Z,7.24
2018-01-03T05:51:41.299Z,7.13
2018-01-03T05:54:09.669Z,7.14
2018-01-03T05:56:38.024Z,7.24
2018-01-03T05:59:06.365Z,7.16
2018-01-03T06:01:35.566Z,7.20
2018-01-03T06:04:03.892Z,7.21
2018-01-03T06:06:32.217Z,7.31
2018-01-03T06:09:01.334Z,7.25
2018-01-03T06:11:30.409Z,7.27
2018-01-03T06:13:58.709Z,7.25
2018-01-03T06:16:27.824Z,7.25
2018-01-03T06:18:56.181Z,7.37
2018-01-03T06:21:24.518Z,7.40
2018-01-03T06:23:53.237Z,7.44
2018-01-03T06:26:22.355Z,7.33
2018-01-03T06:28:50.754Z,7.56
2018-01-03T06:31:19.120Z,7.66
2018-01-03T06:33:47.445Z,7.66
2018-01-03T06:36:15.806Z,7.61
2018-01-03T06:38:44.422Z,7.71
2018-01-03T06:41:12.762Z,7.50
2018-01-03T06:43:41.112Z,7.58
2018-01-03T06:46:09.633Z,7.63
2018-01-03T06:48:37.964Z,7.80
2018-01-03T06:51:06.282Z,7.88
2018-01-03T06:53:34.628Z,7.79
2018-01-03T06:56:02.938Z,7.90
2018-01-03T06:58:32.114Z,7.87
2018-01-03T07:01:00.516Z,7.87
2018-01-03T07:03:28.870Z,8.00
2018-01-03T07:05:57.184Z,8.10
2018-01-03T07:08:25.865Z,8.18
2018-01-03T07:10:54.173Z,8.36
2018-01-03T07:13:22.502Z,8.49
2018-01-03T07:15:50.846Z,8.30
2018-01-03T07:18:19.155Z,8.55
2018-01-03T07:20:47.462Z,8.69
2018-01-03T07:23:15.805Z,8.69
2018-01-03T07:25:44.105Z,8.84
2018-01-03T07:28:12.433Z,8.95
2018-01-03T07:30:41.120Z,9.10
2018-01-03T07:33:09.462Z,9.10
2018-01-03T07:35:38.554Z,9.05
2018-01-03T07:38:06.964Z,8.84
2018-01-03T07:40:35.259Z,8.90
2018-01-03T07:43:04.341Z,9.06
2018-01-03T07:45:32.740Z,9.21
2018-01-03T07:48:01.022Z,9.40
2018-01-03T07:50:30.129Z,9.17
2018-01-03T07:52:58.808Z,9.20
2018-01-03T07:55:27.130Z,9.46
2018-01-03T07:57:55.438Z,9.59
2018-01-03T08:00:23.772Z,9.73
2018-01-03T08:02:52.187Z,9.87
2018-01-03T08:05:20.513Z,9.81
2018-01-03T08:07:48.870Z,9.95
2018-01-03T08:10:17.974Z,10.17
2018-01-03T08:12:47.043Z,10.25
2018-01-03T08:15:15.609Z,10.36
2018-01-03T08:17:43.936Z,10.55
2018-01-03T08:20:12.255Z,10.18
2018-01-03T08:22:40.635Z,10.12
2018-01-03T08:25:08.949Z,10.20
2018-01-03T08:27:38.030Z,10.25
2018-01-03T08:30:06.372Z,10.39
2018-01-03T08:32:34.720Z,10.33
2018-01-03T08:35:03.827Z,10.31
2018-01-03T08:37:32.355Z,10.60
2018-01-03T08:40:00.673Z,10.27
2018-01-03T08:42:29.790Z,10.55
2018-01-03T08:44:58.159Z,10.54
2018-01-03T08:47:26.476Z,10.58
2018-01-03T08:49:54.791Z,10.52
2018-01-03T08:52:23.906Z,10.64
2018-01-03T08:54:52.239Z,10.55
2018-01-03T08:57:20.557Z,10.54
2018-01-03T08:59:49.861Z,10.84
2018-01-03T09:02:18.961Z,11.10
2018-01-03T09:04:48.073Z,11.00
2018-01-03T09:07:16.678Z,11.21
2018-01-03T09:09:45.006Z,11.29
2018-01-03T09:12:14.109Z,11.39
2018-01-03T09:14:42.470Z,11.59
2018-01-03T09:17:11.594Z,11.71
2018-01-03T09:19:40.087Z,11.14
2018-01-03T09:22:08.782Z,10.96
2018-01-03T09:24:37.155Z,10.97
2018-01-03T09:27:05.486Z,11.14
2018-01-03T09:29:33.873Z,11.20
2018-01-03T09:32:02.205Z,11.28
2018-01-03T09:34:30.517Z,11.13
2018-01-03T09:36:58.896Z,10.66
2018-01-03T09:39:27.247Z,10.81
2018-01-03T09:41:55.604Z,11.25
2018-01-03T09:44:24.276Z,11.55
2018-01-03T09:46:53.406Z,12.95
2018-01-03T09:49:21.755Z,13.97
2018-01-03T09:51:50.184Z,13.66
2018-01-03T09:54:18.556Z,12.96
2018-01-03T09:56:46.902Z,12.17
2018-01-03T09:59:15.284Z,11.98
2018-01-03T10:01:43.634Z,11.33
2018-01-03T10:04:11.962Z,10.76
2018-01-03T10:06:40.618Z,10.11
2018-01-03T10:09:08.923Z,9.94
2018-01-03T10:14:10.761Z,9.55
2018-01-03T10:16:39.838Z,9.90
2018-01-03T10:19:08.161Z,9.66
2018-01-03T10:21:36.512Z,9.54
2018-01-03T10:24:05.629Z,9.37
2018-01-03T10:26:34.003Z,9.18
2018-01-03T10:29:03.158Z,9.45
2018-01-03T10:31:31.461Z,9.50
2018-01-03T10:34:00.557Z,9.28
2018-01-03T10:36:29.750Z,8.99
2018-01-03T10:38:58.922Z,9.18
2018-01-03T10:41:27.246Z,9.05
2018-01-03T10:43:56.354Z,8.97
2018-01-03T10:46:24.728Z,8.68
2018-01-03T10:48:53.056Z,8.58
2018-01-03T10:51:21.801Z,8.36
2018-01-03T10:53:50.168Z,8.34
2018-01-03T10:56:18.505Z,8.37
2018-01-03T10:58:46.886Z,8.24
2018-01-03T11:01:15.191Z,8.26
2018-01-03T11:03:44.268Z,8.29
2018-01-03T11:06:12.641Z,8.39
2018-01-03T11:08:41.802Z,8.32
2018-01-03T11:11:10.908Z,8.35
2018-01-03T11:13:39.784Z,8.49
2018-01-03T11:16:08.909Z,8.28
2018-01-03T11:18:37.239Z,8.75
2018-01-03T11:21:05.606Z,9.22
2018-01-03T11:23:33.971Z,9.46
2018-01-03T11:26:02.305Z,9.81
2018-01-03T11:28:30.639Z,9.59
2018-01-03T11:30:58.953Z,9.62
2018-01-03T11:33:27.282Z,9.64
2018-01-03T11:35:55.817Z,9.82
2018-01-03T11:38:24.145Z,9.88
2018-01-03T11:40:52.460Z,9.98
2018-01-03T11:43:20.817Z,9.78
2018-01-03T11:45:49.163Z,9.12
2018-01-03T11:48:17.512Z,8.95
2018-01-03T11:50:45.930Z,9.50
2018-01-03T11:53:14.309Z,9.54
2018-01-03T11:55:42.630Z,10.06
2018-01-03T11:58:11.318Z,10.20
2018-01-03T12:00:39.623Z,11.31
2018-01-03T12:03:07.984Z,11.52
2018-01-03T12:05:37.129Z,11.48
2018-01-03T12:08:05.449Z,10.81
2018-01-03T12:10:33.797Z,10.34
2018-01-03T12:13:02.143Z,9.96
2018-01-03T12:15:30.453Z,9.81
2018-01-03T12:17:58.787Z,9.97
2018-01-03T12:20:27.502Z,9.93
2018-01-03T12:22:55.849Z,9.80
2018-01-03T12:25:24.197Z,9.93
2018-01-03T12:27:53.295Z,9.68
2018-01-03T12:30:22.380Z,9.89
2018-01-03T12:32:51.521Z,9.51
2018-01-03T12:35:19.926Z,9.15
2018-01-03T12:37:48.270Z,9.41
2018-01-03T12:40:16.588Z,9.62
2018-01-03T12:42:45.027Z,9.28
2018-01-03T12:45:13.367Z,9.05
2018-01-03T12:47:42.474Z,8.95
2018-01-03T12:50:11.644Z,9.09
2018-01-03T12:52:39.978Z,8.89
2018-01-03T12:55:08.348Z,9.01
2018-01-03T12:58:00.513Z,8.84
2018-01-03T13:00:28.895Z,8.88
2018-01-03T13:02:57.780Z,8.88
2018-01-03T13:05:26.149Z,8.94
2018-01-03T13:07:54.508Z,8.88
2018-01-03T13:10:22.939Z,8.71
2018-01-03T13:12:51.383Z,8.53
2018-01-03T13:15:19.742Z,8.44
2018-01-03T13:17:48.840Z,8.51
2018-01-03T13:20:18.381Z,8.26
2018-01-03T13:22:46.721Z,8.07
2018-01-03T13:25:15.096Z,8.03
2018-01-03T13:27:44.253Z,7.88
2018-01-03T13:30:12.574Z,7.93
2018-01-03T13:32:40.888Z,7.92
2018-01-03T13:35:09.234Z,7.89
2018-01-03T13:37:37.706Z,8.08
2018-01-03T13:40:06.028Z,7.81
2018-01-03T13:42:34.581Z,7.66
2018-01-03T13:45:02.943Z,7.81
2018-01-03T13:47:31.290Z,7.88
2018-01-03T13:49:59.696Z,7.77
2018-01-03T13:52:28.848Z,7.76
2018-01-03T13:54:57.175Z,7.82
2018-01-03T13:57:25.558Z,7.74
2018-01-03T13:59:54.656Z,7.55
2018-01-03T14:02:23.797Z,7.89
2018-01-03T14:04:52.744Z,7.92
2018-01-03T14:07:21.095Z,8.02
2018-01-03T14:09:50.188Z,7.99
2018-01-03T14:12:18.542Z,7.96
2018-01-03T14:14:46.910Z,8.08
2018-01-03T14:17:15.252Z,7.91
2018-01-03T14:19:44.378Z,7.78
2018-01-03T14:22:12.706Z,7.63
2018-01-03T14:24:41.054Z,7.71
2018-01-03T14:27:09.659Z,7.45
2018-01-03T14:29:38.017Z,7.53
2018-01-03T14:32:06.349Z,7.49
2018-01-03T14:34:35.453Z,7.48
2018-01-03T14:37:04.542Z,7.52
2018-01-03T14:39:33.618Z,7.60
2018-01-03T14:42:01.970Z,7.54
2018-01-03T14:44:30.287Z,7.80
2018-01-03T14:46:59.366Z,7.74
2018-01-03T14:49:28.086Z,7.81
2018-01-03T14:51:56.430Z,7.64
2018-01-03T14:54:24.741Z,7.87
2018-01-03T14:56:53.120Z,8.12
2018-01-03T14:59:21.458Z,7.90
2018-01-03T15:01:49.787Z,7.97
2018-01-03T15:04:18.179Z,7.92
2018-01-03T15:06:46.526Z,8.06
2018-01-03T15:09:15.654Z,8.00
2018-01-03T15:11:44.448Z,8.02
2018-01-03T15:14:12.799Z,8.08
2018-01-03T15:16:41.878Z,8.17
2018-01-03T15:19:10.237Z,8.28
2018-01-03T15:21:38.579Z,8.01
2018-01-03T15:24:07.071Z,8.00
2018-01-03T15:26:35.433Z,8.14
2018-01-03T15:29:03.795Z,8.20
2018-01-03T15:31:32.143Z,8.38
2018-01-03T15:34:00.794Z,8.40
2018-01-03T15:36:29.114Z,8.30
2018-01-03T15:38:57.463Z,8.16
2018-01-03T15:41:25.866Z,8.30
2018-01-03T15:43:54.250Z,8.36
2018-01-03T15:46:22.559Z,8.28
2018-01-03T15:48:50.940Z,8.53
2018-01-03T15:51:28.992Z,8.48
2018-01-03T15:53:57.692Z,8.32
2018-01-03T15:56:26.005Z,8.31
2018-01-03T15:58:54.391Z,8.41
2018-01-03T16:01:22.766Z,8.13
2018-01-03T16:03:51.104Z,8.15
2018-01-03T16:06:19.614Z,8.13
2018-01-03T16:08:47.963Z,8.23
2018-01-03T16:11:17.077Z,8.06
2018-01-03T16:13:46.188Z,8.04
2018-01-03T16:16:15.631Z,8.09
2018-01-03T16:18:43.990Z,8.09
2018-01-03T16:21:12.327Z,8.05
2018-01-03T16:23:41.492Z,8.17
2018-01-03T16:26:09.975Z,8.13
2018-01-03T16:28:38.324Z,8.08
2018-01-03T16:31:06.691Z,8.32
2018-01-03T16:33:35.002Z,8.20
2018-01-03T16:36:03.360Z,8.30
2018-01-03T16:38:31.854Z,8.14
2018-01-03T16:41:00.172Z,7.98
2018-01-03T16:43:29.470Z,8.10
2018-01-03T16:45:57.868Z,8.05
2018-01-03T16:48:26.700Z,8.05
2018-01-03T16:50:55.065Z,7.85
2018-01-03T16:53:23.403Z,7.95
2018-01-03T16:55:51.739Z,7.92
2018-01-03T16:58:20.061Z,7.85
2018-01-03T17:00:49.268Z,8.00
2018-01-03T17:03:18.401Z,8.07
2018-01-03T17:05:46.736Z,8.07
2018-01-03T17:08:16.149Z,7.97
2018-01-03T17:10:44.481Z,8.05
2018-01-03T17:13:12.894Z,7.96
2018-01-03T17:15:41.282Z,8.03
2018-01-03T17:18:09.626Z,8.33
2018-01-03T17:20:37.956Z,8.09
2018-01-03T17:23:06.549Z,8.11
2018-01-03T17:25:35.658Z,8.07
2018-01-03T17:28:03.994Z,8.13
2018-01-03T17:30:32.370Z,8.13
2018-01-03T17:33:00.786Z,8.15
2018-01-03T17:35:29.122Z,8.14
2018-01-03T17:37:58.257Z,8.07
2018-01-03T17:40:27.348Z,8.18
2018-01-03T17:42:56.455Z,8.28
2018-01-03T17:45:25.686Z,8.20
2018-01-03T17:47:54.065Z,8.25
2018-01-03T17:50:22.419Z,8.16
2018-01-03T17:55:48.867Z,8.22
2018-01-03T17:58:17.216Z,8.21
2018-01-03T18:00:45.569Z,8.04
2018-01-03T18:03:14.562Z,8.14
2018-01-03T18:05:42.914Z,8.13
2018-01-03T18:08:11.369Z,8.13
2018-01-03T18:10:40.026Z,8.24
2018-01-03T18:13:08.345Z,8.13
2018-01-03T18:15:36.711Z,8.20
2018-01-03T18:18:06.229Z,8.21
2018-01-03T18:20:34.539Z,8.15
2018-01-03T18:23:02.899Z,8.25
2018-01-03T18:25:32.069Z,8.18
2018-01-03T18:28:01.253Z,8.24
2018-01-03T18:30:30.380Z,8.34
2018-01-03T18:32:59.798Z,8.24
2018-01-03T18:35:28.132Z,8.45
2018-01-03T18:37:56.439Z,8.59
2018-01-03T18:40:25.873Z,8.43
2018-01-03T18:42:54.197Z,8.39
2018-01-03T18:45:22.565Z,8.40
2018-01-03T18:47:51.895Z,8.52
2018-01-03T18:50:20.993Z,8.54
2018-01-03T18:52:50.066Z,8.51
2018-01-03T18:55:19.001Z,8.44
2018-01-03T18:57:47.348Z,8.52
2018-01-03T19:00:16.526Z,8.54
2018-01-03T19:02:45.137Z,8.36
2018-01-03T19:05:14.348Z,8.39
2018-01-03T19:07:42.662Z,8.33
2018-01-03T19:10:11.174Z,8.47
2018-01-03T19:12:39.551Z,8.45
2018-01-03T19:15:07.921Z,8.46
2018-01-03T19:17:36.301Z,8.47
2018-01-03T19:20:04.655Z,8.49
2018-01-03T19:22:33.062Z,8.53
2018-01-03T19:25:01.439Z,8.40
2018-01-03T19:27:29.844Z,8.35
2018-01-03T19:29:58.285Z,8.39
2018-01-03T19:32:27.086Z,8.56
2018-01-03T19:34:55.415Z,8.34
2018-01-03T19:37:23.777Z,8.16
2018-01-03T19:39:53.011Z,8.24
2018-01-03T19:42:21.372Z,8.41
2018-01-03T19:44:49.706Z,8.43
2018-01-03T19:47:18.077Z,8.42
2018-01-03T19:49:46.382Z,8.40
2018-01-03T19:52:14.710Z,8.36
2018-01-03T19:54:43.707Z,8.35
2018-01-03T19:57:12.138Z,8.58
2018-01-03T19:59:41.248Z,8.38
2018-01-03T20:02:10.481Z,8.51
2018-01-03T20:04:38.835Z,8.40
2018-01-03T20:07:07.290Z,8.36
2018-01-03T20:09:36.466Z,8.30
2018-01-03T20:12:05.118Z,8.33
2018-01-03T20:14:33.477Z,8.40
2018-01-03T20:17:03.091Z,8.52
2018-01-03T20:19:31.415Z,8.63
2018-01-03T20:21:59.774Z,8.67
2018-01-03T20:24:28.167Z,8.70
2018-01-03T20:26:57.427Z,8.53
2018-01-03T20:29:25.765Z,8.41
2018-01-03T20:31:54.200Z,8.70
2018-01-03T20:34:22.619Z,8.66
2018-01-03T20:36:50.975Z,8.80
2018-01-03T20:39:19.415Z,8.87
2018-01-03T20:41:47.759Z,8.58
2018-01-03T20:44:16.113Z,8.80
2018-01-03T20:46:44.458Z,8.75
2018-01-03T20:49:13.557Z,8.86
2018-01-03T20:51:41.885Z,8.82
2018-01-03T20:54:10.228Z,8.99
2018-01-03T20:56:38.612Z,8.80
2018-01-03T20:59:06.956Z,8.85
2018-01-03T21:01:36.159Z,8.75
2018-01-03T21:04:04.508Z,8.92
2018-01-03T21:06:32.883Z,9.12
2018-01-03T21:09:01.294Z,9.23
2018-01-03T21:11:29.611Z,9.01
2018-01-03T21:13:58.396Z,9.01
2018-01-03T21:16:26.760Z,8.99
2018-01-03T21:18:55.205Z,9.10
2018-01-03T21:21:23.531Z,9.16
2018-01-03T21:23:52.395Z,9.40
2018-01-03T21:26:20.831Z,9.48
2018-01-03T21:28:49.213Z,9.36
2018-01-03T21:31:17.593Z,9.28
2018-01-03T21:33:45.939Z,9.21
2018-01-03T21:36:14.319Z,9.30
2018-01-03T21:38:42.703Z,9.20
2018-01-03T21:41:11.030Z,9.06
2018-01-03T21:43:39.377Z,9.10
2018-01-03T21:46:08.137Z,9.14
2018-01-03T21:48:36.470Z,9.25
2018-01-03T21:51:04.806Z,9.29
2018-01-03T21:53:33.167Z,9.09
2018-01-03T21:56:01.514Z,9.32
2018-01-03T21:58:29.870Z,9.17
2018-01-03T22:00:58.219Z,9.30
2018-01-03T22:03:26.542Z,9.12
2018-01-03T22:05:54.864Z,9.23
2018-01-03T22:08:23.499Z,9.36
2018-01-03T22:10:52.576Z,9.44
2018-01-03T22:13:20.927Z,9.12
2018-01-03T22:15:50.083Z,9.28
2018-01-03T22:18:18.430Z,9.28
2018-01-03T22:20:46.759Z,9.27
2018-01-03T22:23:15.930Z,9.22
2018-01-03T22:25:44.267Z,9.22
2018-01-03T22:28:12.597Z,9.28
2018-01-03T22:30:41.265Z,9.19
2018-01-03T22:33:09.561Z,9.22
2018-01-03T22:35:37.913Z,9.26
2018-01-03T22:38:06.294Z,9.32
2018-01-03T22:40:34.629Z,9.22
2018-01-03T22:43:02.974Z,9.44
2018-01-03T22:45:31.354Z,9.29
2018-01-03T22:47:59.701Z,9.37
2018-01-03T22:50:28.066Z,9.20
2018-01-03T22:52:56.595Z,9.16
2018-01-03T22:55:25.685Z,9.25
2018-01-03T22:57:53.982Z,9.23
2018-01-03T23:00:23.130Z,9.35
2018-01-03T23:02:51.463Z,9.39
2018-01-03T23:05:19.784Z,9.23
2018-01-03T23:07:48.112Z,9.25
2018-01-03T23:10:17.584Z,9.18
2018-01-03T23:12:46.700Z,9.09
2018-01-03T23:15:29.117Z,9.02
2018-01-03T23:17:58.206Z,9.17
2018-01-03T23:20:27.290Z,9.11
2018-01-03T23:22:55.699Z,9.17
2018-01-03T23:25:24.775Z,9.27
2018-01-03T23:27:53.104Z,9.08
2018-01-03T23:30:21.471Z,9.13
2018-01-03T23:32:49.826Z,9.18
2018-01-03T23:35:18.973Z,9.20
2018-01-03T23:37:47.546Z,9.06
2018-01-03T23:40:15.893Z,9.13
2018-01-03T23:42:44.203Z,9.04
2018-01-03T23:45:12.561Z,9.03
2018-01-03T23:47:40.884Z,9.10
2018-01-03T23:50:09.202Z,9.34
2018-01-03T23:52:37.576Z,9.04
2018-01-03T23:55:06.635Z,9.20
2018-01-03T23:57:34.967Z,9.17
